sensor_id;sensor_type;location;lat;lon;timestamp;pressure;altitude;pressure_sealevel;temperature;humidity
15880;BME280;61999;51.514;14.614;2023-08-06T00:00:27;99071.53;;;50.83;nan
15880;BME280;61999;51.514;14.614;2023-08-06T00:02:56;99069.78;;;50.93;nan
15880;BME280;61999;51.514;14.614;2023-08-06T00:05:24;99074.28;;;50.87;nan
15880;BME280;61999;51.514;14.614;2023-08-06T00:07:52;99082.72;;;50.87;nan
15880;BME280;61999;51.514;14.614;2023-08-06T00:10:20;99074.72;;;50.85;nan
15880;BME280;61999;51.514;14.614;2023-08-06T00:12:48;99069.78;;;50.93;nan
15880;BME280;61999;51.514;14.614;2023-08-06T00:15:16;99066.19;;;51.19;nan
15880;BME280;61999;51.514;14.614;2023-08-06T00:17:44;99061.44;;;51.16;nan
15880;BME280;61999;51.514;14.614;2023-08-06T00:20:14;99056.53;;;51.20;nan
15880;BME280;61999;51.514;14.614;2023-08-06T00:22:42;99052.78;;;51.03;nan
15880;BME280;61999;51.514;14.614;2023-08-06T00:25:10;99049.44;;;51.12;nan
15880;BME280;61999;51.514;14.614;2023-08-06T00:27:38;99045.53;;;51.06;nan
15880;BME280;61999;51.514;14.614;2023-08-06T00:30:07;99044.44;;;51.23;nan
15880;BME280;61999;51.514;14.614;2023-08-06T00:32:35;99044.91;;;51.18;nan
15880;BME280;61999;51.514;14.614;2023-08-06T00:35:03;99041.22;;;50.98;nan
15880;BME280;61999;51.514;14.614;2023-08-06T00:37:33;99038.41;;;50.98;nan
15880;BME280;61999;51.514;14.614;2023-08-06T00:40:01;99034.28;;;51.06;nan
15880;BME280;61999;51.514;14.614;2023-08-06T00:42:29;99037.34;;;51.15;nan
15880;BME280;61999;51.514;14.614;2023-08-06T00:44:57;99042.09;;;51.18;nan
15880;BME280;61999;51.514;14.614;2023-08-06T00:47:25;99041.38;;;51.14;nan
15880;BME280;61999;51.514;14.614;2023-08-06T00:49:53;99032.59;;;51.12;nan
15880;BME280;61999;51.514;14.614;2023-08-06T00:52:22;99025.72;;;51.13;nan
15880;BME280;61999;51.514;14.614;2023-08-06T00:54:52;99019.28;;;50.89;nan
15880;BME280;61999;51.514;14.614;2023-08-06T00:57:24;99015.94;;;50.98;nan
15880;BME280;61999;51.514;14.614;2023-08-06T00:59:53;99015.94;;;50.98;nan
15880;BME280;61999;51.514;14.614;2023-08-06T01:02:22;99015.94;;;50.98;nan
15880;BME280;61999;51.514;14.614;2023-08-06T01:04:50;99020.72;;;51.01;nan
15880;BME280;61999;51.514;14.614;2023-08-06T01:07:33;99021.72;;;51.14;nan
15880;BME280;61999;51.514;14.614;2023-08-06T01:10:25;99009.69;;;50.87;nan
15880;BME280;61999;51.514;14.614;2023-08-06T01:13:08;99015.09;;;51.01;nan
15880;BME280;61999;51.514;14.614;2023-08-06T01:15:44;99009.72;;;51.10;nan
15880;BME280;61999;51.514;14.614;2023-08-06T01:18:14;99003.81;;;50.77;nan
15880;BME280;61999;51.514;14.614;2023-08-06T01:20:43;98996.09;;;50.85;nan
15880;BME280;61999;51.514;14.614;2023-08-06T01:23:11;98992.41;;;50.61;nan
15880;BME280;61999;51.514;14.614;2023-08-06T01:25:46;98983.13;;;50.37;nan
15880;BME280;61999;51.514;14.614;2023-08-06T01:28:23;98993.25;;;50.58;nan
15880;BME280;61999;51.514;14.614;2023-08-06T01:30:58;98986.25;;;50.70;nan
15880;BME280;61999;51.514;14.614;2023-08-06T01:33:32;98983.50;;;50.66;nan
15880;BME280;61999;51.514;14.614;2023-08-06T01:36:05;98992.66;;;50.70;nan
15880;BME280;61999;51.514;14.614;2023-08-06T01:38:33;98991.38;;;50.51;nan
15880;BME280;61999;51.514;14.614;2023-08-06T01:41:01;98992.41;;;50.61;nan
15880;BME280;61999;51.514;14.614;2023-08-06T01:43:29;98979.47;;;50.67;nan
15880;BME280;61999;51.514;14.614;2023-08-06T01:45:57;98971.34;;;50.76;nan
15880;BME280;61999;51.514;14.614;2023-08-06T01:48:25;98965.63;;;50.83;nan
15880;BME280;61999;51.514;14.614;2023-08-06T01:50:53;98969.84;;;50.68;nan
15880;BME280;61999;51.514;14.614;2023-08-06T01:53:22;98972.22;;;50.70;nan
15880;BME280;61999;51.514;14.614;2023-08-06T01:55:51;98959.56;;;50.58;nan
15880;BME280;61999;51.514;14.614;2023-08-06T01:58:19;98962.44;;;50.54;nan
15880;BME280;61999;51.514;14.614;2023-08-06T02:00:47;98954.88;;;50.51;nan
15880;BME280;61999;51.514;14.614;2023-08-06T02:03:14;98957.06;;;50.64;nan
15880;BME280;61999;51.514;14.614;2023-08-06T02:05:43;98954.59;;;50.69;nan
15880;BME280;61999;51.514;14.614;2023-08-06T02:08:11;98961.00;;;50.70;nan
15880;BME280;61999;51.514;14.614;2023-08-06T02:10:40;98954.13;;;50.74;nan
15880;BME280;61999;51.514;14.614;2023-08-06T02:13:08;98952.63;;;50.66;nan
15880;BME280;61999;51.514;14.614;2023-08-06T02:15:42;98951.41;;;50.67;nan
15880;BME280;61999;51.514;14.614;2023-08-06T02:18:10;98952.25;;;50.64;nan
15880;BME280;61999;51.514;14.614;2023-08-06T02:20:38;98946.69;;;50.60;nan
15880;BME280;61999;51.514;14.614;2023-08-06T02:23:06;98936.19;;;50.65;nan
15880;BME280;61999;51.514;14.614;2023-08-06T02:25:34;98935.47;;;50.60;nan
15880;BME280;61999;51.514;14.614;2023-08-06T02:28:03;98943.78;;;50.40;nan
15880;BME280;61999;51.514;14.614;2023-08-06T02:30:31;98927.91;;;50.30;nan
15880;BME280;61999;51.514;14.614;2023-08-06T02:32:59;98919.94;;;50.25;nan
15880;BME280;61999;51.514;14.614;2023-08-06T02:35:27;98921.97;;;50.25;nan
15880;BME280;61999;51.514;14.614;2023-08-06T02:37:55;98912.63;;;50.31;nan
15880;BME280;61999;51.514;14.614;2023-08-06T02:40:23;98911.16;;;50.23;nan
15880;BME280;61999;51.514;14.614;2023-08-06T02:42:51;98915.91;;;50.26;nan
15880;BME280;61999;51.514;14.614;2023-08-06T02:45:21;98905.53;;;50.23;nan
15880;BME280;61999;51.514;14.614;2023-08-06T02:47:49;98903.66;;;50.44;nan
15880;BME280;61999;51.514;14.614;2023-08-06T02:50:18;98899.94;;;50.23;nan
15880;BME280;61999;51.514;14.614;2023-08-06T02:52:46;98895.97;;;50.21;nan
15880;BME280;61999;51.514;14.614;2023-08-06T02:55:14;98890.28;;;50.24;nan
15880;BME280;61999;51.514;14.614;2023-08-06T02:57:42;98878.66;;;50.26;nan
15880;BME280;61999;51.514;14.614;2023-08-06T03:00:11;98885.06;;;50.26;nan
15880;BME280;61999;51.514;14.614;2023-08-06T03:02:40;98880.06;;;50.37;nan
15880;BME280;61999;51.514;14.614;2023-08-06T03:05:08;98880.59;;;50.29;nan
15880;BME280;61999;51.514;14.614;2023-08-06T03:07:36;98878.22;;;50.27;nan
15880;BME280;61999;51.514;14.614;2023-08-06T03:10:05;98880.47;;;50.36;nan
15880;BME280;61999;51.514;14.614;2023-08-06T03:12:33;98886.47;;;50.11;nan
15880;BME280;61999;51.514;14.614;2023-08-06T03:15:01;98872.59;;;50.27;nan
15880;BME280;61999;51.514;14.614;2023-08-06T03:17:29;98865.53;;;50.19;nan
15880;BME280;61999;51.514;14.614;2023-08-06T03:19:58;98867.19;;;50.16;nan
15880;BME280;61999;51.514;14.614;2023-08-06T03:22:26;98863.47;;;49.92;nan
15880;BME280;61999;51.514;14.614;2023-08-06T03:24:54;98860.19;;;49.98;nan
15880;BME280;61999;51.514;14.614;2023-08-06T03:27:22;98861.78;;;49.99;nan
15880;BME280;61999;51.514;14.614;2023-08-06T03:29:50;98854.38;;;50.12;nan
15880;BME280;61999;51.514;14.614;2023-08-06T03:32:18;98853.06;;;50.47;nan
15880;BME280;61999;51.514;14.614;2023-08-06T03:34:46;98846.03;;;50.35;nan
15880;BME280;61999;51.514;14.614;2023-08-06T03:37:16;98846.25;;;50.48;nan
15880;BME280;61999;51.514;14.614;2023-08-06T03:39:43;98841.50;;;50.18;nan
15880;BME280;61999;51.514;14.614;2023-08-06T03:42:11;98838.94;;;50.27;nan
15880;BME280;61999;51.514;14.614;2023-08-06T03:44:39;98826.56;;;50.25;nan
15880;BME280;61999;51.514;14.614;2023-08-06T03:47:07;98822.84;;;50.31;nan
15880;BME280;61999;51.514;14.614;2023-08-06T03:49:35;98821.16;;;50.10;nan
15880;BME280;61999;51.514;14.614;2023-08-06T03:52:04;98805.34;;;49.66;nan
15880;BME280;61999;51.514;14.614;2023-08-06T03:54:34;98798.81;;;49.76;nan
15880;BME280;61999;51.514;14.614;2023-08-06T03:57:03;98801.31;;;49.67;nan
15880;BME280;61999;51.514;14.614;2023-08-06T03:59:31;98806.44;;;50.03;nan
15880;BME280;61999;51.514;14.614;2023-08-06T04:01:59;98804.00;;;50.05;nan
15880;BME280;61999;51.514;14.614;2023-08-06T04:04:26;98797.25;;;50.02;nan
15880;BME280;61999;51.514;14.614;2023-08-06T04:06:54;98792.47;;;49.99;nan
15880;BME280;61999;51.514;14.614;2023-08-06T04:09:22;98786.75;;;49.79;nan
15880;BME280;61999;51.514;14.614;2023-08-06T04:11:52;98787.47;;;49.83;nan
15880;BME280;61999;51.514;14.614;2023-08-06T04:14:21;98784.03;;;49.72;nan
15880;BME280;61999;51.514;14.614;2023-08-06T04:16:49;98781.41;;;48.85;nan
15880;BME280;61999;51.514;14.614;2023-08-06T04:19:17;98785.63;;;49.42;nan
15880;BME280;61999;51.514;14.614;2023-08-06T04:21:45;98786.03;;;49.71;nan
15880;BME280;61999;51.514;14.614;2023-08-06T04:24:13;98782.13;;;49.65;nan
15880;BME280;61999;51.514;14.614;2023-08-06T04:26:41;98777.47;;;49.51;nan
15880;BME280;61999;51.514;14.614;2023-08-06T04:29:10;98776.22;;;49.87;nan
15880;BME280;61999;51.514;14.614;2023-08-06T04:31:38;98772.06;;;49.37;nan
15880;BME280;61999;51.514;14.614;2023-08-06T04:34:06;98773.06;;;48.37;nan
15880;BME280;61999;51.514;14.614;2023-08-06T04:36:36;98769.72;;;47.97;nan
15880;BME280;61999;51.514;14.614;2023-08-06T04:39:05;98764.97;;;48.46;nan
15880;BME280;61999;51.514;14.614;2023-08-06T04:41:33;98754.81;;;48.63;nan
15880;BME280;61999;51.514;14.614;2023-08-06T04:44:01;98763.44;;;49.21;nan
15880;BME280;61999;51.514;14.614;2023-08-06T04:46:31;98758.00;;;49.06;nan
15880;BME280;61999;51.514;14.614;2023-08-06T04:48:59;98759.75;;;47.96;nan
15880;BME280;61999;51.514;14.614;2023-08-06T04:51:27;98749.22;;;47.41;nan
15880;BME280;61999;51.514;14.614;2023-08-06T04:53:56;98747.44;;;46.37;nan
15880;BME280;61999;51.514;14.614;2023-08-06T04:56:24;98750.59;;;46.90;nan
15880;BME280;61999;51.514;14.614;2023-08-06T04:58:52;98748.66;;;48.82;nan
15880;BME280;61999;51.514;14.614;2023-08-06T05:01:20;98745.81;;;48.86;nan
15880;BME280;61999;51.514;14.614;2023-08-06T05:03:50;98744.56;;;48.49;nan
15880;BME280;61999;51.514;14.614;2023-08-06T05:06:18;98747.50;;;49.14;nan
15880;BME280;61999;51.514;14.614;2023-08-06T05:08:45;98749.72;;;48.02;nan
15880;BME280;61999;51.514;14.614;2023-08-06T05:11:13;98742.53;;;48.01;nan
15880;BME280;61999;51.514;14.614;2023-08-06T05:13:41;98742.81;;;48.17;nan
15880;BME280;61999;51.514;14.614;2023-08-06T05:16:09;98728.19;;;47.99;nan
15880;BME280;61999;51.514;14.614;2023-08-06T05:18:37;98733.38;;;47.97;nan
15880;BME280;61999;51.514;14.614;2023-08-06T05:21:07;98730.44;;;48.63;nan
15880;BME280;61999;51.514;14.614;2023-08-06T05:23:35;98734.16;;;48.91;nan
15880;BME280;61999;51.514;14.614;2023-08-06T05:26:03;98715.91;;;48.79;nan
15880;BME280;61999;51.514;14.614;2023-08-06T05:28:31;98720.41;;;49.07;nan
15880;BME280;61999;51.514;14.614;2023-08-06T05:31:03;98713.84;;;49.18;nan
15880;BME280;61999;51.514;14.614;2023-08-06T05:33:31;98733.03;;;49.50;nan
15880;BME280;61999;51.514;14.614;2023-08-06T05:35:59;98726.13;;;49.62;nan
15880;BME280;61999;51.514;14.614;2023-08-06T05:38:30;98723.13;;;49.45;nan
15880;BME280;61999;51.514;14.614;2023-08-06T05:40:58;98726.38;;;49.40;nan
15880;BME280;61999;51.514;14.614;2023-08-06T05:43:26;98716.94;;;49.27;nan
15880;BME280;61999;51.514;14.614;2023-08-06T05:45:55;98721.50;;;49.48;nan
15880;BME280;61999;51.514;14.614;2023-08-06T05:48:23;98717.75;;;49.24;nan
15880;BME280;61999;51.514;14.614;2023-08-06T05:50:52;98716.00;;;48.69;nan
15880;BME280;61999;51.514;14.614;2023-08-06T05:53:20;98706.44;;;49.35;nan
15880;BME280;61999;51.514;14.614;2023-08-06T05:55:50;98709.84;;;49.19;nan
15880;BME280;61999;51.514;14.614;2023-08-06T05:58:18;98710.31;;;48.79;nan
15880;BME280;61999;51.514;14.614;2023-08-06T06:00:46;98714.78;;;49.69;nan
15880;BME280;61999;51.514;14.614;2023-08-06T06:03:14;98714.91;;;49.31;nan
15880;BME280;61999;51.514;14.614;2023-08-06T06:05:42;98719.34;;;49.59;nan
15880;BME280;61999;51.514;14.614;2023-08-06T06:08:10;98718.44;;;48.67;nan
15880;BME280;61999;51.514;14.614;2023-08-06T06:10:38;98722.59;;;49.81;nan
15880;BME280;61999;51.514;14.614;2023-08-06T06:13:08;98723.66;;;49.64;nan
15880;BME280;61999;51.514;14.614;2023-08-06T06:15:36;98716.50;;;49.63;nan
15880;BME280;61999;51.514;14.614;2023-08-06T06:18:04;98718.94;;;49.88;nan
15880;BME280;61999;51.514;14.614;2023-08-06T06:20:32;98716.69;;;50.03;nan
15880;BME280;61999;51.514;14.614;2023-08-06T06:23:00;98712.06;;;50.16;nan
15880;BME280;61999;51.514;14.614;2023-08-06T06:25:28;98719.00;;;50.08;nan
15880;BME280;61999;51.514;14.614;2023-08-06T06:27:56;98714.09;;;49.00;nan
15880;BME280;61999;51.514;14.614;2023-08-06T06:30:27;98705.91;;;49.74;nan
15880;BME280;61999;51.514;14.614;2023-08-06T06:32:55;98714.25;;;49.78;nan
15880;BME280;61999;51.514;14.614;2023-08-06T06:35:23;98714.19;;;49.85;nan
15880;BME280;61999;51.514;14.614;2023-08-06T06:37:51;98711.72;;;50.14;nan
15880;BME280;61999;51.514;14.614;2023-08-06T06:40:19;98710.63;;;49.19;nan
15880;BME280;61999;51.514;14.614;2023-08-06T06:42:46;98706.56;;;49.24;nan
15880;BME280;61999;51.514;14.614;2023-08-06T06:45:15;98705.94;;;49.43;nan
15880;BME280;61999;51.514;14.614;2023-08-06T06:47:44;98708.34;;;49.99;nan
15880;BME280;61999;51.514;14.614;2023-08-06T06:50:12;98701.44;;;49.49;nan
15880;BME280;61999;51.514;14.614;2023-08-06T06:52:40;98706.19;;;49.52;nan
15880;BME280;61999;51.514;14.614;2023-08-06T06:55:09;98703.31;;;49.29;nan
15880;BME280;61999;51.514;14.614;2023-08-06T06:57:37;98705.06;;;49.16;nan
15880;BME280;61999;51.514;14.614;2023-08-06T07:00:06;98701.63;;;48.67;nan
15880;BME280;61999;51.514;14.614;2023-08-06T07:02:34;98703.03;;;48.44;nan
15880;BME280;61999;51.514;14.614;2023-08-06T07:05:04;98701.31;;;49.29;nan
15880;BME280;61999;51.514;14.614;2023-08-06T07:07:33;98703.63;;;49.92;nan
15880;BME280;61999;51.514;14.614;2023-08-06T07:10:02;98701.75;;;49.55;nan
15880;BME280;61999;51.514;14.614;2023-08-06T07:12:30;98706.56;;;49.85;nan
15880;BME280;61999;51.514;14.614;2023-08-06T07:14:58;98694.00;;;45.78;nan
15880;BME280;61999;51.514;14.614;2023-08-06T07:17:26;98685.94;;;45.44;nan
15880;BME280;61999;51.514;14.614;2023-08-06T07:19:53;98691.94;;;48.75;nan
15880;BME280;61999;51.514;14.614;2023-08-06T07:22:23;98692.47;;;48.17;nan
15880;BME280;61999;51.514;14.614;2023-08-06T07:24:51;98690.56;;;49.24;nan
15880;BME280;61999;51.514;14.614;2023-08-06T07:27:19;98686.84;;;45.84;nan
15880;BME280;61999;51.514;14.614;2023-08-06T07:29:48;98688.97;;;47.40;nan
15880;BME280;61999;51.514;14.614;2023-08-06T07:32:16;98680.56;;;42.19;nan
15880;BME280;61999;51.514;14.614;2023-08-06T07:34:44;98685.63;;;45.64;nan
15880;BME280;61999;51.514;14.614;2023-08-06T07:37:12;98679.03;;;47.98;nan
15880;BME280;61999;51.514;14.614;2023-08-06T07:39:41;98682.50;;;45.90;nan
15880;BME280;61999;51.514;14.614;2023-08-06T07:42:11;98673.88;;;48.45;nan
15880;BME280;61999;51.514;14.614;2023-08-06T07:44:38;98677.38;;;47.45;nan
15880;BME280;61999;51.514;14.614;2023-08-06T07:47:06;98666.53;;;47.61;nan
15880;BME280;61999;51.514;14.614;2023-08-06T07:49:34;98674.53;;;46.25;nan
15880;BME280;61999;51.514;14.614;2023-08-06T07:52:03;98671.75;;;46.53;nan
15880;BME280;61999;51.514;14.614;2023-08-06T07:54:31;98669.34;;;46.09;nan
15880;BME280;61999;51.514;14.614;2023-08-06T07:57:00;98668.31;;;47.26;nan
15880;BME280;61999;51.514;14.614;2023-08-06T07:59:28;98662.75;;;42.20;nan
15880;BME280;61999;51.514;14.614;2023-08-06T08:01:56;98670.91;;;46.63;nan
15880;BME280;61999;51.514;14.614;2023-08-06T08:04:24;98661.34;;;46.57;nan
15880;BME280;61999;51.514;14.614;2023-08-06T08:06:52;98665.22;;;48.29;nan
15880;BME280;61999;51.514;14.614;2023-08-06T08:09:20;98661.81;;;44.27;nan
15880;BME280;61999;51.514;14.614;2023-08-06T08:11:48;98653.41;;;46.06;nan
15880;BME280;61999;51.514;14.614;2023-08-06T08:14:18;98657.13;;;47.26;nan
15880;BME280;61999;51.514;14.614;2023-08-06T08:16:46;98643.75;;;45.35;nan
15880;BME280;61999;51.514;14.614;2023-08-06T08:19:14;98645.00;;;43.68;nan
15880;BME280;61999;51.514;14.614;2023-08-06T08:21:42;98638.38;;;43.43;nan
15880;BME280;61999;51.514;14.614;2023-08-06T08:24:10;98635.88;;;45.87;nan
15880;BME280;61999;51.514;14.614;2023-08-06T08:26:38;98623.78;;;45.22;nan
15880;BME280;61999;51.514;14.614;2023-08-06T08:29:06;98631.50;;;48.02;nan
15880;BME280;61999;51.514;14.614;2023-08-06T08:31:35;98632.66;;;46.50;nan
15880;BME280;61999;51.514;14.614;2023-08-06T08:34:06;98621.25;;;43.74;nan
15880;BME280;61999;51.514;14.614;2023-08-06T08:36:34;98620.47;;;44.88;nan
15880;BME280;61999;51.514;14.614;2023-08-06T08:39:02;98601.13;;;42.80;nan
15880;BME280;61999;51.514;14.614;2023-08-06T08:41:31;98608.91;;;44.82;nan
15880;BME280;61999;51.514;14.614;2023-08-06T08:43:59;98609.28;;;44.77;nan
15880;BME280;61999;51.514;14.614;2023-08-06T08:46:30;98610.41;;;46.35;nan
15880;BME280;61999;51.514;14.614;2023-08-06T08:49:02;98607.66;;;47.30;nan
15880;BME280;61999;51.514;14.614;2023-08-06T08:51:31;98608.38;;;46.39;nan
15880;BME280;61999;51.514;14.614;2023-08-06T08:54:03;98608.22;;;47.63;nan
15880;BME280;61999;51.514;14.614;2023-08-06T08:56:32;98594.16;;;48.23;nan
15880;BME280;61999;51.514;14.614;2023-08-06T08:59:00;98586.72;;;43.34;nan
15880;BME280;61999;51.514;14.614;2023-08-06T09:01:29;98600.53;;;47.12;nan
15880;BME280;61999;51.514;14.614;2023-08-06T09:03:59;98592.88;;;45.88;nan
15880;BME280;61999;51.514;14.614;2023-08-06T09:06:32;98591.56;;;47.49;nan
15880;BME280;61999;51.514;14.614;2023-08-06T09:09:08;98598.38;;;49.84;nan
15880;BME280;61999;51.514;14.614;2023-08-06T09:11:43;98586.16;;;47.20;nan
15880;BME280;61999;51.514;14.614;2023-08-06T09:14:12;98581.44;;;44.66;nan
15880;BME280;61999;51.514;14.614;2023-08-06T09:16:40;98585.66;;;41.76;nan
15880;BME280;61999;51.514;14.614;2023-08-06T09:19:08;98588.09;;;47.30;nan
15880;BME280;61999;51.514;14.614;2023-08-06T09:21:39;98587.50;;;48.09;nan
15880;BME280;61999;51.514;14.614;2023-08-06T09:24:09;98583.63;;;47.96;nan
15880;BME280;61999;51.514;14.614;2023-08-06T09:26:38;98592.72;;;46.81;nan
15880;BME280;61999;51.514;14.614;2023-08-06T09:29:08;98570.56;;;46.13;nan
15880;BME280;61999;51.514;14.614;2023-08-06T09:31:41;98572.38;;;44.84;nan
15880;BME280;61999;51.514;14.614;2023-08-06T09:34:16;98578.03;;;43.36;nan
15880;BME280;61999;51.514;14.614;2023-08-06T09:36:48;98581.69;;;45.49;nan
15880;BME280;61999;51.514;14.614;2023-08-06T09:39:20;98582.28;;;48.11;nan
15880;BME280;61999;51.514;14.614;2023-08-06T09:41:55;98582.25;;;47.66;nan
15880;BME280;61999;51.514;14.614;2023-08-06T09:44:26;98572.97;;;45.72;nan
15880;BME280;61999;51.514;14.614;2023-08-06T09:46:56;98565.50;;;43.56;nan
15880;BME280;61999;51.514;14.614;2023-08-06T09:49:27;98565.06;;;43.95;nan
15880;BME280;61999;51.514;14.614;2023-08-06T09:51:58;98566.97;;;44.36;nan
15880;BME280;61999;51.514;14.614;2023-08-06T09:54:27;98565.03;;;47.12;nan
15880;BME280;61999;51.514;14.614;2023-08-06T09:56:57;98567.28;;;47.35;nan
15880;BME280;61999;51.514;14.614;2023-08-06T09:59:26;98567.84;;;44.54;nan
15880;BME280;61999;51.514;14.614;2023-08-06T10:01:54;98567.91;;;46.98;nan
15880;BME280;61999;51.514;14.614;2023-08-06T10:04:24;98571.94;;;48.08;nan
15880;BME280;61999;51.514;14.614;2023-08-06T10:06:55;98568.97;;;45.44;nan
15880;BME280;61999;51.514;14.614;2023-08-06T10:09:24;98564.25;;;45.98;nan
15880;BME280;61999;51.514;14.614;2023-08-06T10:11:53;98560.66;;;47.15;nan
15880;BME280;61999;51.514;14.614;2023-08-06T10:14:27;98556.16;;;45.15;nan
15880;BME280;61999;51.514;14.614;2023-08-06T10:16:58;98556.56;;;47.34;nan
15880;BME280;61999;51.514;14.614;2023-08-06T10:19:28;98566.88;;;49.53;nan
15880;BME280;61999;51.514;14.614;2023-08-06T10:22:12;98548.00;;;42.21;nan
15880;BME280;61999;51.514;14.614;2023-08-06T10:24:52;98551.91;;;44.44;nan
15880;BME280;61999;51.514;14.614;2023-08-06T10:27:22;98544.78;;;44.50;nan
15880;BME280;61999;51.514;14.614;2023-08-06T10:29:51;98550.53;;;44.89;nan
15880;BME280;61999;51.514;14.614;2023-08-06T10:32:19;98549.81;;;48.55;nan
15880;BME280;61999;51.514;14.614;2023-08-06T10:34:55;98546.75;;;49.07;nan
15880;BME280;61999;51.514;14.614;2023-08-06T10:37:35;98538.72;;;46.25;nan
15880;BME280;61999;51.514;14.614;2023-08-06T10:40:07;98533.09;;;46.18;nan
15880;BME280;61999;51.514;14.614;2023-08-06T10:42:35;98539.72;;;47.41;nan
15880;BME280;61999;51.514;14.614;2023-08-06T10:45:17;98523.31;;;43.85;nan
15880;BME280;61999;51.514;14.614;2023-08-06T10:47:46;98513.97;;;41.71;nan
15880;BME280;61999;51.514;14.614;2023-08-06T10:50:16;98517.88;;;46.55;nan
15880;BME280;61999;51.514;14.614;2023-08-06T10:52:47;98515.00;;;49.41;nan
15880;BME280;61999;51.514;14.614;2023-08-06T10:55:24;98524.13;;;50.16;nan
15880;BME280;61999;51.514;14.614;2023-08-06T10:57:53;98507.63;;;48.05;nan
15880;BME280;61999;51.514;14.614;2023-08-06T11:00:22;98509.19;;;46.31;nan
15880;BME280;61999;51.514;14.614;2023-08-06T11:02:53;98512.59;;;47.90;nan
15880;BME280;61999;51.514;14.614;2023-08-06T11:05:21;98502.41;;;48.10;nan
15880;BME280;61999;51.514;14.614;2023-08-06T11:07:51;98501.97;;;48.46;nan
15880;BME280;61999;51.514;14.614;2023-08-06T11:10:19;98499.34;;;46.97;nan
15880;BME280;61999;51.514;14.614;2023-08-06T11:12:47;98497.34;;;45.34;nan
15880;BME280;61999;51.514;14.614;2023-08-06T11:15:15;98492.97;;;42.50;nan
15880;BME280;61999;51.514;14.614;2023-08-06T11:17:43;98500.63;;;40.33;nan
15880;BME280;61999;51.514;14.614;2023-08-06T11:20:11;98490.34;;;43.79;nan
15880;BME280;61999;51.514;14.614;2023-08-06T11:22:41;98502.13;;;45.30;nan
15880;BME280;61999;51.514;14.614;2023-08-06T11:25:10;98495.66;;;46.33;nan
15880;BME280;61999;51.514;14.614;2023-08-06T11:27:38;98495.59;;;46.40;nan
15880;BME280;61999;51.514;14.614;2023-08-06T11:30:09;98499.50;;;46.68;nan
15880;BME280;61999;51.514;14.614;2023-08-06T11:32:45;98495.41;;;47.91;nan
15880;BME280;61999;51.514;14.614;2023-08-06T11:35:15;98499.75;;;45.39;nan
15880;BME280;61999;51.514;14.614;2023-08-06T11:37:45;98494.91;;;46.08;nan
15880;BME280;61999;51.514;14.614;2023-08-06T11:40:16;98506.06;;;49.50;nan
15880;BME280;61999;51.514;14.614;2023-08-06T11:42:46;98500.56;;;46.96;nan
15880;BME280;61999;51.514;14.614;2023-08-06T11:45:15;98503.22;;;48.76;nan
15880;BME280;61999;51.514;14.614;2023-08-06T11:47:50;98505.13;;;49.80;nan
15880;BME280;61999;51.514;14.614;2023-08-06T11:50:24;98511.38;;;49.17;nan
15880;BME280;61999;51.514;14.614;2023-08-06T11:52:57;98497.34;;;45.84;nan
15880;BME280;61999;51.514;14.614;2023-08-06T11:55:28;98495.22;;;43.97;nan
15880;BME280;61999;51.514;14.614;2023-08-06T11:57:57;98498.03;;;44.92;nan
15880;BME280;61999;51.514;14.614;2023-08-06T12:00:26;98498.34;;;48.80;nan
15880;BME280;61999;51.514;14.614;2023-08-06T12:02:54;98485.97;;;42.02;nan
15880;BME280;61999;51.514;14.614;2023-08-06T12:05:23;98494.06;;;46.29;nan
15880;BME280;61999;51.514;14.614;2023-08-06T12:07:54;98495.34;;;46.98;nan
15880;BME280;61999;51.514;14.614;2023-08-06T12:10:26;98490.81;;;40.36;nan
15880;BME280;61999;51.514;14.614;2023-08-06T12:12:55;98487.00;;;41.22;nan
15880;BME280;61999;51.514;14.614;2023-08-06T12:15:24;98488.41;;;43.84;nan
15880;BME280;61999;51.514;14.614;2023-08-06T12:17:52;98491.38;;;45.57;nan
15880;BME280;61999;51.514;14.614;2023-08-06T12:20:20;98500.63;;;47.41;nan
15880;BME280;61999;51.514;14.614;2023-08-06T12:22:48;98493.28;;;46.17;nan
15880;BME280;61999;51.514;14.614;2023-08-06T12:25:17;98493.75;;;45.94;nan
15880;BME280;61999;51.514;14.614;2023-08-06T12:27:46;98498.72;;;46.64;nan
15880;BME280;61999;51.514;14.614;2023-08-06T12:30:16;98505.31;;;45.32;nan
15880;BME280;61999;51.514;14.614;2023-08-06T12:32:44;98510.09;;;48.37;nan
15880;BME280;61999;51.514;14.614;2023-08-06T12:35:12;98501.56;;;47.23;nan
15880;BME280;61999;51.514;14.614;2023-08-06T12:37:41;98494.50;;;44.07;nan
15880;BME280;61999;51.514;14.614;2023-08-06T12:40:10;98501.78;;;48.91;nan
15880;BME280;61999;51.514;14.614;2023-08-06T12:42:45;98497.53;;;47.28;nan
15880;BME280;61999;51.514;14.614;2023-08-06T12:45:13;98502.56;;;46.92;nan
15880;BME280;61999;51.514;14.614;2023-08-06T12:47:43;98508.31;;;49.59;nan
15880;BME280;61999;51.514;14.614;2023-08-06T12:50:12;98498.63;;;47.90;nan
15880;BME280;61999;51.514;14.614;2023-08-06T12:52:40;98500.59;;;49.66;nan
15880;BME280;61999;51.514;14.614;2023-08-06T12:55:08;98500.25;;;47.84;nan
15880;BME280;61999;51.514;14.614;2023-08-06T12:57:36;98504.56;;;49.45;nan
15880;BME280;61999;51.514;14.614;2023-08-06T13:00:13;98508.59;;;48.59;nan
15880;BME280;61999;51.514;14.614;2023-08-06T13:02:42;98500.59;;;50.30;nan
15880;BME280;61999;51.514;14.614;2023-08-06T13:05:11;98494.44;;;48.74;nan
15880;BME280;61999;51.514;14.614;2023-08-06T13:07:39;98504.78;;;51.31;nan
15880;BME280;61999;51.514;14.614;2023-08-06T13:10:07;98492.13;;;48.65;nan
15880;BME280;61999;51.514;14.614;2023-08-06T13:12:35;98495.72;;;47.97;nan
15880;BME280;61999;51.514;14.614;2023-08-06T13:15:05;98510.94;;;50.89;nan
15880;BME280;61999;51.514;14.614;2023-08-06T13:17:33;98513.63;;;50.20;nan
15880;BME280;61999;51.514;14.614;2023-08-06T13:20:04;98509.09;;;50.82;nan